sensor_id;sensor_type;location;lat;lon;timestamp;pressure;altitude;pressure_sealevel;temperature;humidity
45864;BME280;31579;52.354;16.974;2023-04-15T00:00:02;214.4;;;-146.1;100.0
45864;BME280;31579;52.354;16.974;2023-04-15T00:01:06;214.0;;;-146.1;100.0
45864;BME280;31579;52.354;16.974;2023-04-15T00:03:16;219.5;;;-146.1;100.0
45864;BME280;31579;52.354;16.974;2023-04-15T00:04:20;222.7;;;-146.1;100.0
45864;BME280;31579;52.354;16.974;2023-04-15T00:05:24;226.4;;;-146.1;100.0
45864;BME280;31579;52.354;16.974;2023-04-15T00:06:28;230.5;;;-146.1;100.0
45864;BME280;31579;52.354;16.974;2023-04-15T00:07:32;229.8;;;-146.1;100.0
45864;BME280;31579;52.354;16.974;2023-04-15T00:08:36;234.4;;;-146.1;100.0
45864;BME280;31579;52.354;16.974;2023-04-15T00:09:40;232.7;;;-146.1;100.0
45864;BME280;31579;52.354;16.974;2023-04-15T00:10:44;239.5;;;-146.1;100.0
45864;BME280;31579;52.354;16.974;2023-04-15T00:11:48;238.4;;;-146.1;100.0
45864;BME280;31579;52.354;16.974;2023-04-15T00:12:52;244.3;;;-146.1;100.0
45864;BME280;31579;52.354;16.974;2023-04-15T00:13:57;250.4;;;-146.1;100.0
45864;BME280;31579;52.354;16.974;2023-04-15T00:15:09;101.7;;;-146.1;100.0
45864;BME280;31579;52.354;16.974;2023-04-15T00:16:13;207.0;;;-146.1;100.0
45864;BME280;31579;52.354;16.974;2023-04-15T00:17:17;228.8;;;-146.1;100.0
45864;BME280;31579;52.354;16.974;2023-04-15T00:18:21;236.9;;;-146.1;100.0
45864;BME280;31579;52.354;16.974;2023-04-15T00:19:25;250.5;;;-146.1;100.0
45864;BME280;31579;52.354;16.974;2023-04-15T00:20:30;250.3;;;-146.1;100.0
45864;BME280;31579;52.354;16.974;2023-04-15T00:21:34;254.2;;;-146.1;100.0
45864;BME280;31579;52.354;16.974;2023-04-15T00:22:38;260.6;;;-146.1;100.0
45864;BME280;31579;52.354;16.974;2023-04-15T00:23:42;262.0;;;-146.1;100.0
45864;BME280;31579;52.354;16.974;2023-04-15T00:24:46;262.8;;;-146.1;100.0
45864;BME280;31579;52.354;16.974;2023-04-15T00:25:50;263.4;;;-146.1;100.0
45864;BME280;31579;52.354;16.974;2023-04-15T00:26:54;267.4;;;-146.1;100.0
45864;BME280;31579;52.354;16.974;2023-04-15T00:27:58;267.7;;;-146.1;100.0
45864;BME280;31579;52.354;16.974;2023-04-15T00:29:08;191.8;;;-146.1;100.0
45864;BME280;31579;52.354;16.974;2023-04-15T00:30:12;246.2;;;-146.1;100.0
45864;BME280;31579;52.354;16.974;2023-04-15T00:31:16;261.3;;;-146.1;100.0
45864;BME280;31579;52.354;16.974;2023-04-15T00:32:20;267.4;;;-146.1;100.0
45864;BME280;31579;52.354;16.974;2023-04-15T00:33:24;272.6;;;-146.1;100.0
45864;BME280;31579;52.354;16.974;2023-04-15T00:34:28;276.2;;;-146.1;100.0
45864;BME280;31579;52.354;16.974;2023-04-15T00:35:32;280.4;;;-146.1;100.0
45864;BME280;31579;52.354;16.974;2023-04-15T00:36:36;272.5;;;-146.1;100.0
45864;BME280;31579;52.354;16.974;2023-04-15T00:37:40;273.3;;;-146.1;100.0
45864;BME280;31579;52.354;16.974;2023-04-15T00:38:44;272.5;;;-146.1;100.0
45864;BME280;31579;52.354;16.974;2023-04-15T00:39:48;272.8;;;-146.1;100.0
45864;BME280;31579;52.354;16.974;2023-04-15T00:40:52;283.9;;;-146.1;100.0
45864;BME280;31579;52.354;16.974;2023-04-15T00:41:56;279.8;;;-146.1;100.0
45864;BME280;31579;52.354;16.974;2023-04-15T00:43:00;275.5;;;-146.1;100.0
45864;BME280;31579;52.354;16.974;2023-04-15T00:44:05;274.4;;;-146.1;100.0
45864;BME280;31579;52.354;16.974;2023-04-15T00:45:09;279.9;;;-146.1;100.0
45864;BME280;31579;52.354;16.974;2023-04-15T00:46:13;282.5;;;-146.1;100.0
45864;BME280;31579;52.354;16.974;2023-04-15T00:47:17;283.8;;;-146.1;100.0
45864;BME280;31579;52.354;16.974;2023-04-15T00:48:21;284.1;;;-146.1;100.0
45864;BME280;31579;52.354;16.974;2023-04-15T00:49:25;288.6;;;-146.1;100.0
45864;BME280;31579;52.354;16.974;2023-04-15T00:50:29;289.4;;;-146.1;100.0
45864;BME280;31579;52.354;16.974;2023-04-15T00:51:33;295.3;;;-146.1;100.0
45864;BME280;31579;52.354;16.974;2023-04-15T00:52:37;294.2;;;-146.1;100.0
45864;BME280;31579;52.354;16.974;2023-04-15T00:53:41;293.2;;;-146.1;100.0
45864;BME280;31579;52.354;16.974;2023-04-15T00:54:45;292.7;;;-146.1;100.0
45864;BME280;31579;52.354;16.974;2023-04-15T00:55:49;294.4;;;-146.1;100.0
45864;BME280;31579;52.354;16.974;2023-04-15T00:56:53;295.4;;;-146.1;100.0
45864;BME280;31579;52.354;16.974;2023-04-15T00:57:57;298.6;;;-146.1;100.0
45864;BME280;31579;52.354;16.974;2023-04-15T00:59:01;298.8;;;-146.1;100.0
45864;BME280;31579;52.354;16.974;2023-04-15T01:00:04;322.6;;;-146.1;100.0
45864;BME280;31579;52.354;16.974;2023-04-15T01:01:06;335.7;;;-146.1;100.0
45864;BME280;31579;52.354;16.974;2023-04-15T01:02:10;313.4;;;-146.1;100.0
45864;BME280;31579;52.354;16.974;2023-04-15T01:03:14;312.5;;;-146.1;100.0
45864;BME280;31579;52.354;16.974;2023-04-15T01:04:18;309.3;;;-146.1;100.0
45864;BME280;31579;52.354;16.974;2023-04-15T01:05:22;304.3;;;-146.1;100.0
45864;BME280;31579;52.354;16.974;2023-04-15T01:06:26;304.7;;;-146.1;100.0
45864;BME280;31579;52.354;16.974;2023-04-15T01:07:30;305.3;;;-146.1;100.0
45864;BME280;31579;52.354;16.974;2023-04-15T01:08:34;305.0;;;-146.1;100.0
45864;BME280;31579;52.354;16.974;2023-04-15T01:09:38;308.3;;;-146.1;100.0
45864;BME280;31579;52.354;16.974;2023-04-15T01:10:42;308.9;;;-146.1;100.0
45864;BME280;31579;52.354;16.974;2023-04-15T01:11:47;310.8;;;-146.1;100.0
45864;BME280;31579;52.354;16.974;2023-04-15T01:12:51;313.2;;;-146.1;100.0
45864;BME280;31579;52.354;16.974;2023-04-15T01:13:55;314.1;;;-146.1;100.0
45864;BME280;31579;52.354;16.974;2023-04-15T01:14:59;314.2;;;-146.1;100.0
45864;BME280;31579;52.354;16.974;2023-04-15T01:16:01;345.6;;;-146.1;100.0
45864;BME280;31579;52.354;16.974;2023-04-15T01:17:04;353.7;;;-146.1;100.0
45864;BME280;31579;52.354;16.974;2023-04-15T01:18:09;334.2;;;-146.1;100.0
45864;BME280;31579;52.354;16.974;2023-04-15T01:19:13;330.1;;;-146.1;100.0
45864;BME280;31579;52.354;16.974;2023-04-15T01:20:17;325.6;;;-146.1;100.0
45864;BME280;31579;52.354;16.974;2023-04-15T01:21:21;327.6;;;-146.1;100.0
45864;BME280;31579;52.354;16.974;2023-04-15T01:22:25;326.8;;;-146.1;100.0
45864;BME280;31579;52.354;16.974;2023-04-15T01:23:29;325.2;;;-146.1;100.0
45864;BME280;31579;52.354;16.974;2023-04-15T01:24:33;328.1;;;-146.1;100.0
45864;BME280;31579;52.354;16.974;2023-04-15T01:25:37;328.8;;;-146.1;100.0
45864;BME280;31579;52.354;16.974;2023-04-15T01:26:41;328.7;;;-146.1;100.0
45864;BME280;31579;52.354;16.974;2023-04-15T01:27:45;328.9;;;-146.1;100.0
45864;BME280;31579;52.354;16.974;2023-04-15T01:28:49;328.7;;;-146.1;100.0
45864;BME280;31579;52.354;16.974;2023-04-15T01:29:54;331.8;;;-146.1;100.0
45864;BME280;31579;52.354;16.974;2023-04-15T01:32:01;331.7;;;-146.1;100.0
45864;BME280;31579;52.354;16.974;2023-04-15T01:33:05;326.9;;;-146.1;100.0
45864;BME280;31579;52.354;16.974;2023-04-15T01:34:09;325.5;;;-146.1;100.0
45864;BME280;31579;52.354;16.974;2023-04-15T01:35:13;324.2;;;-146.1;100.0
45864;BME280;31579;52.354;16.974;2023-04-15T01:36:17;322.5;;;-146.1;100.0
45864;BME280;31579;52.354;16.974;2023-04-15T01:37:21;325.5;;;-146.1;100.0
45864;BME280;31579;52.354;16.974;2023-04-15T01:38:26;329.4;;;-146.1;100.0
45864;BME280;31579;52.354;16.974;2023-04-15T01:39:30;332.5;;;-146.1;100.0
45864;BME280;31579;52.354;16.974;2023-04-15T01:40:34;331.9;;;-146.1;100.0
45864;BME280;31579;52.354;16.974;2023-04-15T01:41:38;331.4;;;-146.1;100.0
45864;BME280;31579;52.354;16.974;2023-04-15T01:42:42;331.2;;;-146.1;100.0
45864;BME280;31579;52.354;16.974;2023-04-15T01:43:46;335.6;;;-146.1;100.0
45864;BME280;31579;52.354;16.974;2023-04-15T01:44:50;335.0;;;-146.1;100.0
45864;BME280;31579;52.354;16.974;2023-04-15T01:45:54;336.9;;;-146.1;100.0
45864;BME280;31579;52.354;16.974;2023-04-15T01:46:58;337.3;;;-146.1;100.0
45864;BME280;31579;52.354;16.974;2023-04-15T01:48:02;340.1;;;-146.1;100.0
45864;BME280;31579;52.354;16.974;2023-04-15T01:49:05;365.5;;;-146.1;100.0
45864;BME280;31579;52.354;16.974;2023-04-15T01:50:09;351.7;;;-146.1;100.0
45864;BME280;31579;52.354;16.974;2023-04-15T01:51:13;346.4;;;-146.1;100.0
45864;BME280;31579;52.354;16.974;2023-04-15T01:52:17;344.3;;;-146.1;100.0
45864;BME280;31579;52.354;16.974;2023-04-15T01:53:21;344.6;;;-146.1;100.0
45864;BME280;31579;52.354;16.974;2023-04-15T01:54:25;345.8;;;-146.1;100.0
45864;BME280;31579;52.354;16.974;2023-04-15T01:55:29;349.0;;;-146.1;100.0
45864;BME280;31579;52.354;16.974;2023-04-15T01:56:33;351.6;;;-146.1;100.0
45864;BME280;31579;52.354;16.974;2023-04-15T01:57:37;345.2;;;-146.1;100.0
45864;BME280;31579;52.354;16.974;2023-04-15T01:58:41;344.0;;;-146.1;100.0
45864;BME280;31579;52.354;16.974;2023-04-15T01:59:45;346.5;;;-146.1;100.0
45864;BME280;31579;52.354;16.974;2023-04-15T02:00:49;345.5;;;-146.1;100.0
45864;BME280;31579;52.354;16.974;2023-04-15T02:01:53;346.3;;;-146.1;100.0
45864;BME280;31579;52.354;16.974;2023-04-15T02:02:57;345.0;;;-146.1;100.0
45864;BME280;31579;52.354;16.974;2023-04-15T02:04:01;345.7;;;-146.1;100.0
45864;BME280;31579;52.354;16.974;2023-04-15T02:05:04;363.3;;;-146.1;100.0
45864;BME280;31579;52.354;16.974;2023-04-15T02:06:09;354.7;;;-146.1;100.0
45864;BME280;31579;52.354;16.974;2023-04-15T02:07:13;355.1;;;-146.1;100.0
45864;BME280;31579;52.354;16.974;2023-04-15T02:08:17;356.6;;;-146.1;100.0
45864;BME280;31579;52.354;16.974;2023-04-15T02:09:21;356.6;;;-146.1;100.0
45864;BME280;31579;52.354;16.974;2023-04-15T02:10:25;361.4;;;-146.1;100.0
45864;BME280;31579;52.354;16.974;2023-04-15T02:11:29;358.3;;;-146.1;100.0
45864;BME280;31579;52.354;16.974;2023-04-15T02:12:33;358.5;;;-146.1;100.0
45864;BME280;31579;52.354;16.974;2023-04-15T02:13:37;360.4;;;-146.1;100.0
45864;BME280;31579;52.354;16.974;2023-04-15T02:14:41;362.3;;;-146.1;100.0
45864;BME280;31579;52.354;16.974;2023-04-15T02:15:47;365.4;;;-146.1;100.0
45864;BME280;31579;52.354;16.974;2023-04-15T02:16:49;363.3;;;-146.1;100.0
45864;BME280;31579;52.354;16.974;2023-04-15T02:17:53;362.1;;;-146.1;100.0
45864;BME280;31579;52.354;16.974;2023-04-15T02:18:57;360.4;;;-146.1;100.0
45864;BME280;31579;52.354;16.974;2023-04-15T02:20:01;356.8;;;-146.1;100.0
45864;BME280;31579;52.354;16.974;2023-04-15T02:21:05;359.6;;;-146.1;100.0
45864;BME280;31579;52.354;16.974;2023-04-15T02:22:09;360.2;;;-146.1;100.0
45864;BME280;31579;52.354;16.974;2023-04-15T02:23:13;360.2;;;-146.1;100.0
45864;BME280;31579;52.354;16.974;2023-04-15T02:24:17;360.9;;;-146.1;100.0
45864;BME280;31579;52.354;16.974;2023-04-15T02:25:21;362.6;;;-146.1;100.0
45864;BME280;31579;52.354;16.974;2023-04-15T02:26:25;359.0;;;-146.1;100.0
45864;BME280;31579;52.354;16.974;2023-04-15T02:27:29;361.4;;;-146.1;100.0
45864;BME280;31579;52.354;16.974;2023-04-15T02:28:33;362.7;;;-146.1;100.0
45864;BME280;31579;52.354;16.974;2023-04-15T02:29:37;362.4;;;-146.1;100.0
45864;BME280;31579;52.354;16.974;2023-04-15T02:30:41;363.1;;;-146.1;100.0
45864;BME280;31579;52.354;16.974;2023-04-15T02:31:45;364.0;;;-146.1;100.0
45864;BME280;31579;52.354;16.974;2023-04-15T02:32:49;361.9;;;-146.1;100.0
45864;BME280;31579;52.354;16.974;2023-04-15T02:33:53;363.6;;;-146.1;100.0
45864;BME280;31579;52.354;16.974;2023-04-15T02:35:01;365.5;;;-146.1;100.0
45864;BME280;31579;52.354;16.974;2023-04-15T02:36:01;364.1;;;-146.1;100.0
45864;BME280;31579;52.354;16.974;2023-04-15T02:37:05;365.2;;;-146.1;100.0
45864;BME280;31579;52.354;16.974;2023-04-15T02:38:09;366.9;;;-146.1;100.0
45864;BME280;31579;52.354;16.974;2023-04-15T02:39:13;364.0;;;-146.1;100.0
45864;BME280;31579;52.354;16.974;2023-04-15T02:40:17;367.8;;;-146.1;100.0
45864;BME280;31579;52.354;16.974;2023-04-15T02:41:21;365.5;;;-146.1;100.0
45864;BME280;31579;52.354;16.974;2023-04-15T02:42:25;366.3;;;-146.1;100.0
45864;BME280;31579;52.354;16.974;2023-04-15T02:43:29;368.8;;;-146.1;100.0
45864;BME280;31579;52.354;16.974;2023-04-15T02:44:33;371.0;;;-146.1;100.0
45864;BME280;31579;52.354;16.974;2023-04-15T02:45:37;370.2;;;-146.1;100.0
45864;BME280;31579;52.354;16.974;2023-04-15T02:46:41;369.9;;;-146.1;100.0
45864;BME280;31579;52.354;16.974;2023-04-15T02:47:45;373.1;;;-146.1;100.0
45864;BME280;31579;52.354;16.974;2023-04-15T02:48:49;374.3;;;-146.1;100.0
45864;BME280;31579;52.354;16.974;2023-04-15T02:49:53;376.9;;;-146.1;100.0
45864;BME280;31579;52.354;16.974;2023-04-15T02:52:08;285.2;;;-146.1;100.0
45864;BME280;31579;52.354;16.974;2023-04-15T02:53:12;359.3;;;-146.1;100.0
45864;BME280;31579;52.354;16.974;2023-04-15T02:54:16;369.2;;;-146.1;100.0
45864;BME280;31579;52.354;16.974;2023-04-15T02:55:20;375.2;;;-146.1;100.0
45864;BME280;31579;52.354;16.974;2023-04-15T02:56:24;381.9;;;-146.1;100.0
45864;BME280;31579;52.354;16.974;2023-04-15T02:57:28;384.7;;;-146.1;100.0
45864;BME280;31579;52.354;16.974;2023-04-15T02:58:32;389.1;;;-146.1;100.0
45864;BME280;31579;52.354;16.974;2023-04-15T02:59:36;392.6;;;-146.1;100.0
45864;BME280;31579;52.354;16.974;2023-04-15T03:00:41;396.3;;;-146.1;100.0
45864;BME280;31579;52.354;16.974;2023-04-15T03:01:45;400.8;;;-146.1;100.0
45864;BME280;31579;52.354;16.974;2023-04-15T03:02:49;401.2;;;-146.1;100.0
45864;BME280;31579;52.354;16.974;2023-04-15T03:03:53;403.4;;;-146.1;100.0
45864;BME280;31579;52.354;16.974;2023-04-15T03:04:57;406.5;;;-146.1;100.0
45864;BME280;31579;52.354;16.974;2023-04-15T03:06:01;408.4;;;-146.1;100.0
45864;BME280;31579;52.354;16.974;2023-04-15T03:07:06;410.6;;;-146.1;100.0
45864;BME280;31579;52.354;16.974;2023-04-15T03:08:09;411.5;;;-146.1;100.0
45864;BME280;31579;52.354;16.974;2023-04-15T03:09:13;413.9;;;-146.1;100.0
45864;BME280;31579;52.354;16.974;2023-04-15T03:10:17;417.1;;;-146.1;100.0
45864;BME280;31579;52.354;16.974;2023-04-15T03:11:21;420.3;;;-146.1;100.0
45864;BME280;31579;52.354;16.974;2023-04-15T03:12:25;421.3;;;-146.1;100.0
45864;BME280;31579;52.354;16.974;2023-04-15T03:13:29;420.1;;;-146.1;100.0
45864;BME280;31579;52.354;16.974;2023-04-15T03:14:33;420.5;;;-146.1;100.0
45864;BME280;31579;52.354;16.974;2023-04-15T03:15:37;422.3;;;-146.1;100.0
45864;BME280;31579;52.354;16.974;2023-04-15T03:16:41;424.6;;;-146.1;100.0
45864;BME280;31579;52.354;16.974;2023-04-15T03:17:45;424.6;;;-146.1;100.0
45864;BME280;31579;52.354;16.974;2023-04-15T03:18:49;426.1;;;-146.1;100.0
45864;BME280;31579;52.354;16.974;2023-04-15T03:19:53;427.9;;;-146.1;100.0
45864;BME280;31579;52.354;16.974;2023-04-15T03:20:57;429.2;;;-146.1;100.0
45864;BME280;31579;52.354;16.974;2023-04-15T03:22:01;429.8;;;-146.1;100.0
45864;BME280;31579;52.354;16.974;2023-04-15T03:23:03;449.2;;;-146.1;100.0
45864;BME280;31579;52.354;16.974;2023-04-15T03:24:13;412.3;;;-146.1;100.0
45864;BME280;31579;52.354;16.974;2023-04-15T03:25:17;430.8;;;-146.1;100.0
45864;BME280;31579;52.354;16.974;2023-04-15T03:27:25;434.1;;;-146.1;100.0
45864;BME280;31579;52.354;16.974;2023-04-15T03:28:29;435.7;;;-146.1;100.0
45864;BME280;31579;52.354;16.974;2023-04-15T03:29:33;437.4;;;-146.1;100.0
45864;BME280;31579;52.354;16.974;2023-04-15T03:30:37;438.8;;;-146.1;100.0
45864;BME280;31579;52.354;16.974;2023-04-15T03:31:41;439.4;;;-146.1;100.0
45864;BME280;31579;52.354;16.974;2023-04-15T03:32:45;440.6;;;-146.1;100.0
45864;BME280;31579;52.354;16.974;2023-04-15T03:33:49;440.9;;;-146.1;100.0
45864;BME280;31579;52.354;16.974;2023-04-15T03:34:53;442.7;;;-146.1;100.0
45864;BME280;31579;52.354;16.974;2023-04-15T03:35:58;442.2;;;-146.1;100.0
45864;BME280;31579;52.354;16.974;2023-04-15T03:37:00;459.9;;;-146.1;100.0
45864;BME280;31579;52.354;16.974;2023-04-15T03:38:03;458.7;;;-146.1;100.0
45864;BME280;31579;52.354;16.974;2023-04-15T03:39:08;450.8;;;-146.1;100.0
45864;BME280;31579;52.354;16.974;2023-04-15T03:40:12;448.8;;;-146.1;100.0
45864;BME280;31579;52.354;16.974;2023-04-15T03:41:16;448.4;;;-146.1;100.0
45864;BME280;31579;52.354;16.974;2023-04-15T03:42:20;448.3;;;-146.1;100.0
45864;BME280;31579;52.354;16.974;2023-04-15T03:43:24;449.7;;;-146.1;100.0
45864;BME280;31579;52.354;16.974;2023-04-15T03:44:28;448.7;;;-146.1;100.0
45864;BME280;31579;52.354;16.974;2023-04-15T03:45:32;449.7;;;-146.1;100.0
45864;BME280;31579;52.354;16.974;2023-04-15T03:46:36;451.3;;;-146.1;100.0
45864;BME280;31579;52.354;16.974;2023-04-15T03:47:40;450.1;;;-146.1;100.0
45864;BME280;31579;52.354;16.974;2023-04-15T03:48:44;450.1;;;-146.1;100.0
45864;BME280;31579;52.354;16.974;2023-04-15T03:49:48;450.8;;;-146.1;100.0
45864;BME280;31579;52.354;16.974;2023-04-15T03:50:52;449.8;;;-146.1;100.0
45864;BME280;31579;52.354;16.974;2023-04-15T03:51:56;451.1;;;-146.1;100.0
45864;BME280;31579;52.354;16.974;2023-04-15T03:53:00;451.8;;;-146.1;100.0
45864;BME280;31579;52.354;16.974;2023-04-15T03:54:03;459.1;;;-146.1;100.0
45864;BME280;31579;52.354;16.974;2023-04-15T03:55:08;443.1;;;-146.1;100.0
45864;BME280;31579;52.354;16.974;2023-04-15T03:56:12;450.4;;;-146.1;100.0
45864;BME280;31579;52.354;16.974;2023-04-15T03:57:16;450.9;;;-146.1;100.0
45864;BME280;31579;52.354;16.974;2023-04-15T03:58:20;453.1;;;-146.1;100.0
45864;BME280;31579;52.354;16.974;2023-04-15T03:59:24;454.0;;;-146.1;100.0
45864;BME280;31579;52.354;16.974;2023-04-15T04:00:29;455.1;;;-146.1;100.0
45864;BME280;31579;52.354;16.974;2023-04-15T04:01:33;455.0;;;-146.1;100.0
45864;BME280;31579;52.354;16.974;2023-04-15T04:02:37;454.7;;;-146.1;100.0
45864;BME280;31579;52.354;16.974;2023-04-15T04:03:41;455.2;;;-146.1;100.0
45864;BME280;31579;52.354;16.974;2023-04-15T04:04:45;454.5;;;-146.1;100.0
45864;BME280;31579;52.354;16.974;2023-04-15T04:05:49;455.5;;;-146.1;100.0
45864;BME280;31579;52.354;16.974;2023-04-15T04:06:54;455.8;;;-146.1;100.0
45864;BME280;31579;52.354;16.974;2023-04-15T04:07:58;455.7;;;-146.1;100.0
45864;BME280;31579;52.354;16.974;2023-04-15T04:09:00;470.1;;;-146.1;100.0
45864;BME280;31579;52.354;16.974;2023-04-15T04:10:05;462.1;;;-146.1;100.0
45864;BME280;31579;52.354;16.974;2023-04-15T04:11:07;472.5;;;-146.1;100.0
45864;BME280;31579;52.354;16.974;2023-04-15T04:12:10;471.6;;;-146.1;100.0
45864;BME280;31579;52.354;16.974;2023-04-15T04:13:14;466.4;;;-146.1;100.0
45864;BME280;31579;52.354;16.974;2023-04-15T04:14:18;465.8;;;-146.1;100.0
45864;BME280;31579;52.354;16.974;2023-04-15T04:15:22;464.8;;;-146.1;100.0
45864;BME280;31579;52.354;16.974;2023-04-15T04:16:26;464.6;;;-146.1;100.0
45864;BME280;31579;52.354;16.974;2023-04-15T04:17:30;463.7;;;-146.1;100.0
45864;BME280;31579;52.354;16.974;2023-04-15T04:18:34;463.3;;;-146.1;100.0
45864;BME280;31579;52.354;16.974;2023-04-15T04:19:38;463.5;;;-146.1;100.0
45864;BME280;31579;52.354;16.974;2023-04-15T04:20:42;462.7;;;-146.1;100.0
45864;BME280;31579;52.354;16.974;2023-04-15T04:21:46;463.8;;;-146.1;100.0
45864;BME280;31579;52.354;16.974;2023-04-15T04:22:50;464.7;;;-146.1;100.0
45864;BME280;31579;52.354;16.974;2023-04-15T04:23:54;463.3;;;-146.1;100.0
45864;BME280;31579;52.354;16.974;2023-04-15T04:24:58;464.2;;;-146.1;100.0
45864;BME280;31579;52.354;16.974;2023-04-15T04:26:07;454.6;;;-146.1;100.0
45864;BME280;31579;52.354;16.974;2023-04-15T04:27:11;459.5;;;-146.1;100.0
45864;BME280;31579;52.354;16.974;2023-04-15T04:28:15;462.2;;;-146.1;100.0
45864;BME280;31579;52.354;16.974;2023-04-15T04:29:19;463.7;;;-146.1;100.0
45864;BME280;31579;52.354;16.974;2023-04-15T04:30:23;466.4;;;-146.1;100.0
45864;BME280;31579;52.354;16.974;2023-04-15T04:31:27;466.1;;;-146.1;100.0
45864;BME280;31579;52.354;16.974;2023-04-15T04:32:31;466.4;;;-146.1;100.0
45864;BME280;31579;52.354;16.974;2023-04-15T04:33:35;467.3;;;-146.1;100.0
45864;BME280;31579;52.354;16.974;2023-04-15T04:34:39;468.1;;;-146.1;100.0
45864;BME280;31579;52.354;16.974;2023-04-15T04:35:43;468.8;;;-146.1;100.0
45864;BME280;31579;52.354;16.974;2023-04-15T04:36:47;469.5;;;-146.1;100.0
45864;BME280;31579;52.354;16.974;2023-04-15T04:37:51;469.9;;;-146.1;100.0
45864;BME280;31579;52.354;16.974;2023-04-15T04:38:55;469.6;;;-146.1;100.0
45864;BME280;31579;52.354;16.974;2023-04-15T04:39:59;470.7;;;-146.1;100.0
45864;BME280;31579;52.354;16.974;2023-04-15T04:41:03;478.4;;;-146.1;100.0
45864;BME280;31579;52.354;16.974;2023-04-15T04:42:07;476.1;;;-146.1;100.0
45864;BME280;31579;52.354;16.974;2023-04-15T04:43:11;474.8;;;-146.1;100.0
45864;BME280;31579;52.354;16.974;2023-04-15T04:44:15;474.4;;;-146.1;100.0
45864;BME280;31579;52.354;16.974;2023-04-15T04:45:19;473.9;;;-146.1;100.0
45864;BME280;31579;52.354;16.974;2023-04-15T04:46:23;473.6;;;-146.1;100.0
45864;BME280;31579;52.354;16.974;2023-04-15T04:47:27;474.1;;;-146.1;100.0
45864;BME280;31579;52.354;16.974;2023-04-15T04:48:31;488.8;;;-146.1;100.0
45864;BME280;31579;52.354;16.974;2023-04-15T04:49:35;488.6;;;-146.1;100.0
45864;BME280;31579;52.354;16.974;2023-04-15T04:50:39;488.4;;;-146.1;100.0
45864;BME280;31579;52.354;16.974;2023-04-15T04:51:43;488.1;;;-146.1;100.0
45864;BME280;31579;52.354;16.974;2023-04-15T04:52:47;488.2;;;-146.1;100.0
45864;BME280;31579;52.354;16.974;2023-04-15T04:53:51;488.4;;;-146.1;100.0
45864;BME280;31579;52.354;16.974;2023-04-15T04:54:55;488.1;;;-146.1;100.0
45864;BME280;31579;52.354;16.974;2023-04-15T04:55:59;488.5;;;-146.1;100.0
45864;BME280;31579;52.354;16.974;2023-04-15T04:57:03;488.2;;;-146.1;100.0
45864;BME280;31579;52.354;16.974;2023-04-15T04:58:07;488.3;;;-146.1;100.0
45864;BME280;31579;52.354;16.974;2023-04-15T04:59:11;489.0;;;-146.1;100.0
45864;BME280;31579;52.354;16.974;2023-04-15T05:00:15;489.5;;;-146.1;100.0
45864;BME280;31579;52.354;16.974;2023-04-15T05:01:19;489.1;;;-146.1;100.0
45864;BME280;31579;52.354;16.974;2023-04-15T05:02:23;489.3;;;-146.1;100.0
45864;BME280;31579;52.354;16.974;2023-04-15T05:03:28;489.1;;;-146.1;100.0
45864;BME280;31579;52.354;16.974;2023-04-15T05:04:32;489.1;;;-146.1;100.0
45864;BME280;31579;52.354;16.974;2023-04-15T05:05:36;489.0;;;-146.1;100.0
45864;BME280;31579;52.354;16.974;2023-04-15T05:06:40;489.9;;;-146.1;100.0
45864;BME280;31579;52.354;16.974;2023-04-15T05:07:44;490.4;;;-146.1;100.0
45864;BME280;31579;52.354;16.974;2023-04-15T05:08:48;490.9;;;-146.1;100.0
45864;BME280;31579;52.354;16.974;2023-04-15T05:09:52;490.3;;;-146.1;100.0
45864;BME280;31579;52.354;16.974;2023-04-15T05:10:56;490.3;;;-146.1;100.0
45864;BME280;31579;52.354;16.974;2023-04-15T05:12:00;489.9;;;-146.1;100.0
45864;BME280;31579;52.354;16.974;2023-04-15T05:13:05;490.4;;;-146.1;100.0
45864;BME280;31579;52.354;16.974;2023-04-15T05:14:09;490.8;;;-146.1;100.0
45864;BME280;31579;52.354;16.974;2023-04-15T05:15:13;491.5;;;-146.1;100.0
45864;BME280;31579;52.354;16.974;2023-04-15T05:16:17;491.4;;;-146.1;100.0
45864;BME280;31579;52.354;16.974;2023-04-15T05:17:21;491.3;;;-146.1;100.0
45864;BME280;31579;52.354;16.974;2023-04-15T05:18:25;492.0;;;-146.1;100.0
45864;BME280;31579;52.354;16.974;2023-04-15T05:19:29;492.6;;;-146.1;100.0
45864;BME280;31579;52.354;16.974;2023-04-15T05:20:33;492.7;;;-146.1;100.0
45864;BME280;31579;52.354;16.974;2023-04-15T05:21:37;492.2;;;-146.1;100.0
45864;BME280;31579;52.354;16.974;2023-04-15T05:22:41;492.4;;;-146.1;100.0
45864;BME280;31579;52.354;16.974;2023-04-15T05:23:45;493.0;;;-146.1;100.0
45864;BME280;31579;52.354;16.974;2023-04-15T05:24:49;493.1;;;-146.1;100.0
45864;BME280;31579;52.354;16.974;2023-04-15T05:25:53;493.1;;;-146.1;100.0
45864;BME280;31579;52.354;16.974;2023-04-15T05:26:57;493.3;;;-146.1;100.0
45864;BME280;31579;52.354;16.974;2023-04-15T05:28:01;493.9;;;-146.1;100.0
45864;BME280;31579;52.354;16.974;2023-04-15T05:29:05;493.9;;;-146.1;100.0
45864;BME280;31579;52.354;16.974;2023-04-15T05:30:09;494.3;;;-146.1;100.0
45864;BME280;31579;52.354;16.974;2023-04-15T05:31:14;494.6;;;-146.1;100.0
45864;BME280;31579;52.354;16.974;2023-04-15T05:32:18;494.8;;;-146.1;100.0
45864;BME280;31579;52.354;16.974;2023-04-15T05:33:22;494.9;;;-146.1;100.0
45864;BME280;31579;52.354;16.974;2023-04-15T05:34:26;495.4;;;-146.1;100.0
45864;BME280;31579;52.354;16.974;2023-04-15T05:35:30;495.8;;;-146.1;100.0
45864;BME280;31579;52.354;16.974;2023-04-15T05:36:34;495.8;;;-146.1;100.0
45864;BME280;31579;52.354;16.974;2023-04-15T05:37:38;495.8;;;-146.1;100.0
45864;BME280;31579;52.354;16.974;2023-04-15T05:38:42;496.4;;;-146.1;100.0
45864;BME280;31579;52.354;16.974;2023-04-15T05:39:46;496.7;;;-146.1;100.0
45864;BME280;31579;52.354;16.974;2023-04-15T05:40:50;496.8;;;-146.1;100.0
45864;BME280;31579;52.354;16.974;2023-04-15T05:41:54;496.6;;;-146.1;100.0
45864;BME280;31579;52.354;16.974;2023-04-15T05:42:58;496.8;;;-146.1;100.0
45864;BME280;31579;52.354;16.974;2023-04-15T05:44:05;497.6;;;-146.1;100.0
45864;BME280;31579;52.354;16.974;2023-04-15T05:45:10;496.5;;;-146.1;100.0
45864;BME280;31579;52.354;16.974;2023-04-15T05:46:13;496.6;;;-146.1;100.0
45864;BME280;31579;52.354;16.974;2023-04-15T05:47:18;496.9;;;-146.1;100.0